Soquel, California
Current Conditions -  °F | °C
As of 3:53 AM on Monday 20 Oct 2014 (Local Time) from KWVI Reporting Station
Overcast Overcast  
Wind Chill: 62°   Ceiling: 1700
Heat Index: 62°   Visibility: 10mi
Dew Point: 59°   Wind: 0mph
Humidity: 90%   Direction: NA
Pressure: 29.93"   Gusts: NA
Location:  36.99°N, 121.95°W
Report Text: KWVI 201053Z AUTO 00000KT 10SM OVC017 17/15 A2993 RMK AO2 SLP132 T01670150
Loading
Personal Weather Stations






























Interactive Weather Map New forecast layout! Learn more

10-Day Weather Forecast

Advertisements
Track Severe Weather on mobile